sensor_id;sensor_type;location;lat;lon;timestamp;P1;durP1;ratioP1;P2;durP2;ratioP2
8584;SDS011;7180;52.742;11.420;2023-03-23T00:00:15;9.00;;;8.50;;
8584;SDS011;7180;52.742;11.420;2023-03-23T00:02:40;8.93;;;8.27;;
8584;SDS011;7180;52.742;11.420;2023-03-23T00:05:05;8.43;;;8.02;;
8584;SDS011;7180;52.742;11.420;2023-03-23T00:07:32;8.80;;;8.30;;
8584;SDS011;7180;52.742;11.420;2023-03-23T00:09:57;9.70;;;9.20;;
8584;SDS011;7180;52.742;11.420;2023-03-23T00:12:24;9.00;;;8.57;;
8584;SDS011;7180;52.742;11.420;2023-03-23T00:14:54;9.50;;;8.90;;
8584;SDS011;7180;52.742;11.420;2023-03-23T00:17:19;9.37;;;8.93;;
8584;SDS011;7180;52.742;11.420;2023-03-23T00:19:44;9.25;;;8.75;;
8584;SDS011;7180;52.742;11.420;2023-03-23T00:22:13;9.57;;;9.00;;
8584;SDS011;7180;52.742;11.420;2023-03-23T00:24:39;9.87;;;9.30;;
8584;SDS011;7180;52.742;11.420;2023-03-23T00:27:04;9.23;;;8.73;;
8584;SDS011;7180;52.742;11.420;2023-03-23T00:29:29;9.83;;;9.10;;
8584;SDS011;7180;52.742;11.420;2023-03-23T00:31:54;9.50;;;9.00;;
8584;SDS011;7180;52.742;11.420;2023-03-23T00:34:24;9.70;;;9.10;;
8584;SDS011;7180;52.742;11.420;2023-03-23T00:36:53;9.60;;;9.10;;
8584;SDS011;7180;52.742;11.420;2023-03-23T00:39:21;9.77;;;9.13;;
8584;SDS011;7180;52.742;11.420;2023-03-23T00:41:49;9.60;;;9.00;;
8584;SDS011;7180;52.742;11.420;2023-03-23T00:44:14;9.40;;;9.00;;
8584;SDS011;7180;52.742;11.420;2023-03-23T00:46:43;9.70;;;9.10;;
8584;SDS011;7180;52.742;11.420;2023-03-23T00:49:09;9.97;;;9.47;;
8584;SDS011;7180;52.742;11.420;2023-03-23T00:51:35;9.47;;;9.03;;
8584;SDS011;7180;52.742;11.420;2023-03-23T00:54:00;10.10;;;9.40;;
8584;SDS011;7180;52.742;11.420;2023-03-23T00:56:25;9.48;;;8.88;;
8584;SDS011;7180;52.742;11.420;2023-03-23T00:58:51;8.10;;;7.70;;
8584;SDS011;7180;52.742;11.420;2023-03-23T01:01:16;8.00;;;7.60;;
8584;SDS011;7180;52.742;11.420;2023-03-23T01:03:41;7.97;;;7.57;;
8584;SDS011;7180;52.742;11.420;2023-03-23T01:06:08;8.83;;;8.43;;
8584;SDS011;7180;52.742;11.420;2023-03-23T01:08:37;8.97;;;8.37;;
8584;SDS011;7180;52.742;11.420;2023-03-23T01:11:05;8.27;;;7.77;;
8584;SDS011;7180;52.742;11.420;2023-03-23T01:13:30;8.67;;;8.10;;
8584;SDS011;7180;52.742;11.420;2023-03-23T01:15:55;8.30;;;7.90;;
8584;SDS011;7180;52.742;11.420;2023-03-23T01:18:20;8.67;;;8.17;;
8584;SDS011;7180;52.742;11.420;2023-03-23T01:20:45;8.75;;;8.32;;
8584;SDS011;7180;52.742;11.420;2023-03-23T01:23:11;9.13;;;8.50;;
8584;SDS011;7180;52.742;11.420;2023-03-23T01:25:36;9.50;;;9.00;;
8584;SDS011;7180;52.742;11.420;2023-03-23T01:28:01;9.43;;;8.93;;
8584;SDS011;7180;52.742;11.420;2023-03-23T01:30:27;8.97;;;8.50;;
8584;SDS011;7180;52.742;11.420;2023-03-23T01:32:53;9.50;;;9.00;;
8584;SDS011;7180;52.742;11.420;2023-03-23T01:35:19;8.97;;;8.47;;
8584;SDS011;7180;52.742;11.420;2023-03-23T01:37:44;9.10;;;8.60;;
8584;SDS011;7180;52.742;11.420;2023-03-23T01:40:09;10.10;;;9.43;;
8584;SDS011;7180;52.742;11.420;2023-03-23T01:42:35;9.43;;;8.93;;
8584;SDS011;7180;52.742;11.420;2023-03-23T01:47:45;10.00;;;9.40;;
8584;SDS011;7180;52.742;11.420;2023-03-23T01:50:11;10.63;;;10.00;;
8584;SDS011;7180;52.742;11.420;2023-03-23T01:52:36;9.90;;;9.40;;
8584;SDS011;7180;52.742;11.420;2023-03-23T01:55:01;10.40;;;9.60;;
8584;SDS011;7180;52.742;11.420;2023-03-23T01:57:28;10.50;;;9.90;;
8584;SDS011;7180;52.742;11.420;2023-03-23T01:59:54;10.57;;;9.87;;
8584;SDS011;7180;52.742;11.420;2023-03-23T02:02:21;10.13;;;9.53;;
8584;SDS011;7180;52.742;11.420;2023-03-23T02:04:47;10.00;;;9.40;;
8584;SDS011;7180;52.742;11.420;2023-03-23T02:07:12;10.70;;;10.07;;
8584;SDS011;7180;52.742;11.420;2023-03-23T02:09:39;10.13;;;9.53;;
8584;SDS011;7180;52.742;11.420;2023-03-23T02:12:04;10.80;;;10.13;;
8584;SDS011;7180;52.742;11.420;2023-03-23T02:14:29;10.83;;;10.13;;
8584;SDS011;7180;52.742;11.420;2023-03-23T02:17:00;10.67;;;9.97;;
8584;SDS011;7180;52.742;11.420;2023-03-23T02:22:28;10.73;;;10.03;;
8584;SDS011;7180;52.742;11.420;2023-03-23T02:27:28;10.70;;;10.10;;
8584;SDS011;7180;52.742;11.420;2023-03-23T02:30:11;10.80;;;10.20;;
8584;SDS011;7180;52.742;11.420;2023-03-23T02:35:21;10.60;;;10.00;;
8584;SDS011;7180;52.742;11.420;2023-03-23T02:37:52;10.77;;;10.17;;
8584;SDS011;7180;52.742;11.420;2023-03-23T02:40:21;10.40;;;9.80;;
8584;SDS011;7180;52.742;11.420;2023-03-23T02:42:49;9.97;;;9.47;;
8584;SDS011;7180;52.742;11.420;2023-03-23T02:45:17;10.73;;;10.03;;
8584;SDS011;7180;52.742;11.420;2023-03-23T02:47:42;10.77;;;10.07;;
8584;SDS011;7180;52.742;11.420;2023-03-23T02:50:09;10.40;;;9.70;;
8584;SDS011;7180;52.742;11.420;2023-03-23T02:52:35;10.20;;;9.60;;
8584;SDS011;7180;52.742;11.420;2023-03-23T02:55:01;10.23;;;9.53;;
8584;SDS011;7180;52.742;11.420;2023-03-23T02:57:27;10.60;;;9.90;;
8584;SDS011;7180;52.742;11.420;2023-03-23T02:59:53;11.57;;;10.80;;
8584;SDS011;7180;52.742;11.420;2023-03-23T03:02:22;10.63;;;9.93;;
8584;SDS011;7180;52.742;11.420;2023-03-23T03:04:53;10.90;;;10.20;;
8584;SDS011;7180;52.742;11.420;2023-03-23T03:08:02;12.47;;;11.57;;
8584;SDS011;7180;52.742;11.420;2023-03-23T03:12:41;10.90;;;10.20;;
8584;SDS011;7180;52.742;11.420;2023-03-23T03:15:10;11.10;;;10.40;;
8584;SDS011;7180;52.742;11.420;2023-03-23T03:17:42;11.47;;;10.60;;
8584;SDS011;7180;52.742;11.420;2023-03-23T03:20:10;10.63;;;10.03;;
8584;SDS011;7180;52.742;11.420;2023-03-23T03:22:37;11.10;;;10.30;;
8584;SDS011;7180;52.742;11.420;2023-03-23T03:25:03;11.40;;;10.40;;
8584;SDS011;7180;52.742;11.420;2023-03-23T03:27:28;11.13;;;10.43;;
8584;SDS011;7180;52.742;11.420;2023-03-23T03:29:57;11.23;;;10.50;;
8584;SDS011;7180;52.742;11.420;2023-03-23T03:32:25;11.80;;;10.90;;
8584;SDS011;7180;52.742;11.420;2023-03-23T03:34:52;10.57;;;9.90;;
8584;SDS011;7180;52.742;11.420;2023-03-23T03:37:18;11.40;;;10.70;;
8584;SDS011;7180;52.742;11.420;2023-03-23T03:39:43;10.70;;;10.00;;
8584;SDS011;7180;52.742;11.420;2023-03-23T03:42:09;10.30;;;9.67;;
8584;SDS011;7180;52.742;11.420;2023-03-23T03:44:34;11.30;;;10.53;;
8584;SDS011;7180;52.742;11.420;2023-03-23T03:46:59;11.60;;;10.80;;
8584;SDS011;7180;52.742;11.420;2023-03-23T03:49:24;11.07;;;10.17;;
8584;SDS011;7180;52.742;11.420;2023-03-23T03:51:50;10.63;;;10.03;;
8584;SDS011;7180;52.742;11.420;2023-03-23T03:54:15;9.67;;;9.17;;
8584;SDS011;7180;52.742;11.420;2023-03-23T03:56:41;10.43;;;9.80;;
8584;SDS011;7180;52.742;11.420;2023-03-23T03:59:07;10.10;;;9.60;;
8584;SDS011;7180;52.742;11.420;2023-03-23T04:01:33;10.60;;;10.00;;
8584;SDS011;7180;52.742;11.420;2023-03-23T04:03:58;11.00;;;10.20;;
8584;SDS011;7180;52.742;11.420;2023-03-23T04:06:23;11.00;;;10.40;;
8584;SDS011;7180;52.742;11.420;2023-03-23T04:08:49;11.10;;;10.30;;
8584;SDS011;7180;52.742;11.420;2023-03-23T04:11:14;11.10;;;10.20;;
8584;SDS011;7180;52.742;11.420;2023-03-23T04:13:40;11.17;;;10.57;;
8584;SDS011;7180;52.742;11.420;2023-03-23T04:16:05;11.10;;;10.40;;
8584;SDS011;7180;52.742;11.420;2023-03-23T04:18:31;11.70;;;10.90;;
8584;SDS011;7180;52.742;11.420;2023-03-23T04:20:58;11.30;;;10.47;;
8584;SDS011;7180;52.742;11.420;2023-03-23T04:23:24;10.90;;;10.30;;
8584;SDS011;7180;52.742;11.420;2023-03-23T04:25:49;11.30;;;10.60;;
8584;SDS011;7180;52.742;11.420;2023-03-23T04:28:17;11.50;;;10.80;;
8584;SDS011;7180;52.742;11.420;2023-03-23T04:30:43;12.10;;;11.30;;
8584;SDS011;7180;52.742;11.420;2023-03-23T04:33:10;11.80;;;11.10;;
8584;SDS011;7180;52.742;11.420;2023-03-23T04:35:39;11.20;;;10.60;;
8584;SDS011;7180;52.742;11.420;2023-03-23T04:38:04;11.33;;;10.57;;
8584;SDS011;7180;52.742;11.420;2023-03-23T04:40:29;11.10;;;10.40;;
8584;SDS011;7180;52.742;11.420;2023-03-23T04:42:54;11.07;;;10.37;;
8584;SDS011;7180;52.742;11.420;2023-03-23T04:45:22;10.57;;;9.97;;
8584;SDS011;7180;52.742;11.420;2023-03-23T04:47:48;11.50;;;10.70;;
8584;SDS011;7180;52.742;11.420;2023-03-23T04:50:18;10.70;;;10.10;;
8584;SDS011;7180;52.742;11.420;2023-03-23T04:52:44;11.13;;;10.33;;
8584;SDS011;7180;52.742;11.420;2023-03-23T04:55:10;11.40;;;10.57;;
8584;SDS011;7180;52.742;11.420;2023-03-23T04:57:35;10.97;;;10.27;;
8584;SDS011;7180;52.742;11.420;2023-03-23T05:00:01;11.50;;;10.70;;
8584;SDS011;7180;52.742;11.420;2023-03-23T05:02:26;11.10;;;10.40;;
8584;SDS011;7180;52.742;11.420;2023-03-23T05:04:55;11.07;;;10.30;;
8584;SDS011;7180;52.742;11.420;2023-03-23T05:07:20;11.33;;;10.60;;
8584;SDS011;7180;52.742;11.420;2023-03-23T05:09:48;11.15;;;10.43;;
8584;SDS011;7180;52.742;11.420;2023-03-23T05:12:14;11.33;;;10.63;;
8584;SDS011;7180;52.742;11.420;2023-03-23T05:14:41;11.33;;;10.60;;
8584;SDS011;7180;52.742;11.420;2023-03-23T05:17:07;11.67;;;10.87;;
8584;SDS011;7180;52.742;11.420;2023-03-23T05:19:32;11.77;;;10.97;;
8584;SDS011;7180;52.742;11.420;2023-03-23T05:21:58;11.30;;;10.60;;
8584;SDS011;7180;52.742;11.420;2023-03-23T05:24:28;11.23;;;10.53;;
8584;SDS011;7180;52.742;11.420;2023-03-23T05:26:56;11.27;;;10.47;;
8584;SDS011;7180;52.742;11.420;2023-03-23T05:29:21;11.63;;;10.83;;
8584;SDS011;7180;52.742;11.420;2023-03-23T05:31:48;11.10;;;10.50;;
8584;SDS011;7180;52.742;11.420;2023-03-23T05:34:13;11.47;;;10.80;;
8584;SDS011;7180;52.742;11.420;2023-03-23T05:36:40;11.60;;;10.80;;
8584;SDS011;7180;52.742;11.420;2023-03-23T05:39:06;11.60;;;10.80;;
8584;SDS011;7180;52.742;11.420;2023-03-23T05:41:31;11.13;;;10.40;;
8584;SDS011;7180;52.742;11.420;2023-03-23T05:43:56;11.00;;;10.20;;
8584;SDS011;7180;52.742;11.420;2023-03-23T05:46:22;12.10;;;11.20;;
8584;SDS011;7180;52.742;11.420;2023-03-23T05:48:47;11.23;;;10.53;;
8584;SDS011;7180;52.742;11.420;2023-03-23T05:51:12;11.20;;;10.50;;
8584;SDS011;7180;52.742;11.420;2023-03-23T05:53:38;11.53;;;10.83;;
8584;SDS011;7180;52.742;11.420;2023-03-23T05:56:03;11.05;;;10.35;;
8584;SDS011;7180;52.742;11.420;2023-03-23T05:58:28;10.80;;;10.20;;
8584;SDS011;7180;52.742;11.420;2023-03-23T06:00:53;11.00;;;10.40;;
8584;SDS011;7180;52.742;11.420;2023-03-23T06:03:20;10.57;;;9.97;;
8584;SDS011;7180;52.742;11.420;2023-03-23T06:05:45;11.00;;;10.20;;
8584;SDS011;7180;52.742;11.420;2023-03-23T06:08:11;10.73;;;10.00;;
8584;SDS011;7180;52.742;11.420;2023-03-23T06:10:36;10.90;;;10.20;;
8584;SDS011;7180;52.742;11.420;2023-03-23T06:13:02;11.00;;;10.40;;
8584;SDS011;7180;52.742;11.420;2023-03-23T06:15:27;10.80;;;10.20;;
8584;SDS011;7180;52.742;11.420;2023-03-23T06:17:57;10.60;;;10.00;;
8584;SDS011;7180;52.742;11.420;2023-03-23T06:20:23;10.80;;;10.10;;
8584;SDS011;7180;52.742;11.420;2023-03-23T06:22:49;11.10;;;10.40;;
8584;SDS011;7180;52.742;11.420;2023-03-23T06:25:14;11.27;;;10.67;;
8584;SDS011;7180;52.742;11.420;2023-03-23T06:27:40;10.80;;;10.20;;
8584;SDS011;7180;52.742;11.420;2023-03-23T06:30:06;11.00;;;10.40;;
8584;SDS011;7180;52.742;11.420;2023-03-23T06:32:31;11.50;;;10.90;;
8584;SDS011;7180;52.742;11.420;2023-03-23T06:34:57;11.50;;;10.83;;
8584;SDS011;7180;52.742;11.420;2023-03-23T06:37:22;12.37;;;11.67;;
8584;SDS011;7180;52.742;11.420;2023-03-23T06:39:49;11.40;;;10.70;;
8584;SDS011;7180;52.742;11.420;2023-03-23T06:42:14;11.40;;;10.67;;
8584;SDS011;7180;52.742;11.420;2023-03-23T06:44:39;11.47;;;10.60;;
8584;SDS011;7180;52.742;11.420;2023-03-23T06:47:05;11.13;;;10.53;;
8584;SDS011;7180;52.742;11.420;2023-03-23T06:49:30;11.37;;;10.70;;
8584;SDS011;7180;52.742;11.420;2023-03-23T06:51:56;10.87;;;10.27;;
8584;SDS011;7180;52.742;11.420;2023-03-23T06:54:21;11.33;;;10.70;;
8584;SDS011;7180;52.742;11.420;2023-03-23T06:56:47;11.07;;;10.47;;
8584;SDS011;7180;52.742;11.420;2023-03-23T06:59:12;11.20;;;10.60;;
8584;SDS011;7180;52.742;11.420;2023-03-23T07:01:37;11.10;;;10.53;;
8584;SDS011;7180;52.742;11.420;2023-03-23T07:04:03;11.20;;;10.60;;
8584;SDS011;7180;52.742;11.420;2023-03-23T07:06:28;11.90;;;11.30;;
8584;SDS011;7180;52.742;11.420;2023-03-23T07:08:53;11.63;;;11.00;;
8584;SDS011;7180;52.742;11.420;2023-03-23T07:11:18;11.80;;;11.10;;
8584;SDS011;7180;52.742;11.420;2023-03-23T07:13:43;11.30;;;10.60;;
8584;SDS011;7180;52.742;11.420;2023-03-23T07:16:10;11.30;;;10.60;;
8584;SDS011;7180;52.742;11.420;2023-03-23T07:18:35;10.83;;;10.23;;
8584;SDS011;7180;52.742;11.420;2023-03-23T07:21:01;11.80;;;11.10;;
8584;SDS011;7180;52.742;11.420;2023-03-23T07:23:26;11.27;;;10.67;;
8584;SDS011;7180;52.742;11.420;2023-03-23T07:25:51;10.00;;;9.50;;
8584;SDS011;7180;52.742;11.420;2023-03-23T07:28:17;10.57;;;9.87;;
8584;SDS011;7180;52.742;11.420;2023-03-23T07:30:43;10.37;;;9.87;;
8584;SDS011;7180;52.742;11.420;2023-03-23T07:33:08;11.80;;;11.17;;
8584;SDS011;7180;52.742;11.420;2023-03-23T07:35:34;11.00;;;10.40;;
8584;SDS011;7180;52.742;11.420;2023-03-23T07:37:59;10.40;;;9.80;;
8584;SDS011;7180;52.742;11.420;2023-03-23T07:40:25;10.50;;;9.97;;
8584;SDS011;7180;52.742;11.420;2023-03-23T07:42:54;10.07;;;9.47;;
8584;SDS011;7180;52.742;11.420;2023-03-23T07:45:20;11.60;;;11.00;;
8584;SDS011;7180;52.742;11.420;2023-03-23T07:47:45;9.70;;;9.20;;
8584;SDS011;7180;52.742;11.420;2023-03-23T07:50:11;10.20;;;9.70;;
8584;SDS011;7180;52.742;11.420;2023-03-23T07:52:37;10.40;;;9.70;;
8584;SDS011;7180;52.742;11.420;2023-03-23T07:55:03;10.60;;;10.10;;
8584;SDS011;7180;52.742;11.420;2023-03-23T07:57:29;11.03;;;10.53;;
8584;SDS011;7180;52.742;11.420;2023-03-23T07:59:54;11.30;;;10.60;;
8584;SDS011;7180;52.742;11.420;2023-03-23T08:02:22;11.10;;;10.50;;
8584;SDS011;7180;52.742;11.420;2023-03-23T08:04:47;10.53;;;9.83;;
8584;SDS011;7180;52.742;11.420;2023-03-23T08:07:12;9.70;;;9.10;;
8584;SDS011;7180;52.742;11.420;2023-03-23T08:09:38;9.40;;;8.90;;
8584;SDS011;7180;52.742;11.420;2023-03-23T08:12:04;10.53;;;9.93;;
8584;SDS011;7180;52.742;11.420;2023-03-23T08:14:29;10.33;;;9.83;;
8584;SDS011;7180;52.742;11.420;2023-03-23T08:16:55;10.17;;;9.67;;
8584;SDS011;7180;52.742;11.420;2023-03-23T08:19:21;10.67;;;10.17;;
8584;SDS011;7180;52.742;11.420;2023-03-23T08:21:46;10.20;;;9.70;;
8584;SDS011;7180;52.742;11.420;2023-03-23T08:24:11;10.32;;;9.73;;
8584;SDS011;7180;52.742;11.420;2023-03-23T08:26:38;10.00;;;9.50;;
8584;SDS011;7180;52.742;11.420;2023-03-23T08:29:03;9.80;;;9.20;;
8584;SDS011;7180;52.742;11.420;2023-03-23T08:31:29;9.77;;;9.30;;
8584;SDS011;7180;52.742;11.420;2023-03-23T08:33:54;9.67;;;9.17;;
8584;SDS011;7180;52.742;11.420;2023-03-23T08:36:21;9.20;;;8.80;;
8584;SDS011;7180;52.742;11.420;2023-03-23T08:38:46;9.70;;;9.20;;
8584;SDS011;7180;52.742;11.420;2023-03-23T08:41:12;9.40;;;9.00;;
8584;SDS011;7180;52.742;11.420;2023-03-23T08:43:37;9.40;;;8.90;;
8584;SDS011;7180;52.742;11.420;2023-03-23T08:46:04;9.40;;;8.90;;
8584;SDS011;7180;52.742;11.420;2023-03-23T08:48:34;9.70;;;9.10;;
8584;SDS011;7180;52.742;11.420;2023-03-23T08:51:00;9.67;;;9.13;;
8584;SDS011;7180;52.742;11.420;2023-03-23T08:53:25;9.37;;;8.90;;
8584;SDS011;7180;52.742;11.420;2023-03-23T08:55:51;9.17;;;8.77;;
8584;SDS011;7180;52.742;11.420;2023-03-23T08:58:16;9.50;;;9.10;;
8584;SDS011;7180;52.742;11.420;2023-03-23T09:00:42;9.50;;;9.10;;
8584;SDS011;7180;52.742;11.420;2023-03-23T09:03:08;9.63;;;9.13;;
8584;SDS011;7180;52.742;11.420;2023-03-23T09:05:33;9.80;;;9.30;;
8584;SDS011;7180;52.742;11.420;2023-03-23T09:07:58;9.87;;;9.37;;
8584;SDS011;7180;52.742;11.420;2023-03-23T09:10:24;10.27;;;9.67;;
8584;SDS011;7180;52.742;11.420;2023-03-23T09:12:51;9.60;;;9.10;;
8584;SDS011;7180;52.742;11.420;2023-03-23T09:15:17;9.30;;;8.80;;
8584;SDS011;7180;52.742;11.420;2023-03-23T09:17:44;9.93;;;9.33;;
8584;SDS011;7180;52.742;11.420;2023-03-23T09:20:10;9.83;;;9.23;;
8584;SDS011;7180;52.742;11.420;2023-03-23T09:22:37;9.90;;;9.30;;
8584;SDS011;7180;52.742;11.420;2023-03-23T09:25:03;9.60;;;9.03;;
8584;SDS011;7180;52.742;11.420;2023-03-23T09:27:28;9.23;;;8.73;;
8584;SDS011;7180;52.742;11.420;2023-03-23T09:29:54;8.83;;;8.33;;
8584;SDS011;7180;52.742;11.420;2023-03-23T09:32:20;10.00;;;9.40;;
8584;SDS011;7180;52.742;11.420;2023-03-23T09:34:47;10.57;;;9.93;;
8584;SDS011;7180;52.742;11.420;2023-03-23T09:37:12;10.27;;;9.63;;
8584;SDS011;7180;52.742;11.420;2023-03-23T09:39:39;9.90;;;9.30;;
8584;SDS011;7180;52.742;11.420;2023-03-23T09:44:57;10.43;;;9.63;;
8584;SDS011;7180;52.742;11.420;2023-03-23T09:47:30;9.47;;;8.87;;
8584;SDS011;7180;52.742;11.420;2023-03-23T09:50:08;9.50;;;9.00;;
8584;SDS011;7180;52.742;11.420;2023-03-23T09:52:56;9.60;;;9.00;;
8584;SDS011;7180;52.742;11.420;2023-03-23T09:55:20;9.60;;;9.00;;
8584;SDS011;7180;52.742;11.420;2023-03-23T09:57:59;10.30;;;9.60;;
8584;SDS011;7180;52.742;11.420;2023-03-23T10:00:30;9.20;;;8.70;;
8584;SDS011;7180;52.742;11.420;2023-03-23T10:05:30;10.40;;;9.80;;
8584;SDS011;7180;52.742;11.420;2023-03-23T10:07:57;9.73;;;9.23;;
8584;SDS011;7180;52.742;11.420;2023-03-23T10:10:24;9.97;;;9.37;;
8584;SDS011;7180;52.742;11.420;2023-03-23T10:12:53;9.70;;;9.13;;
8584;SDS011;7180;52.742;11.420;2023-03-23T10:15:21;9.60;;;9.00;;
8584;SDS011;7180;52.742;11.420;2023-03-23T10:17:59;9.30;;;8.73;;
8584;SDS011;7180;52.742;11.420;2023-03-23T10:20:29;9.70;;;9.13;;
8584;SDS011;7180;52.742;11.420;2023-03-23T10:25:25;11.10;;;10.30;;
8584;SDS011;7180;52.742;11.420;2023-03-23T10:27:58;10.00;;;9.37;;
8584;SDS011;7180;52.742;11.420;2023-03-23T10:30:27;9.70;;;9.20;;
8584;SDS011;7180;52.742;11.420;2023-03-23T10:33:08;9.53;;;8.90;;
8584;SDS011;7180;52.742;11.420;2023-03-23T10:35:39;9.43;;;8.83;;
8584;SDS011;7180;52.742;11.420;2023-03-23T10:38:09;9.10;;;8.60;;
8584;SDS011;7180;52.742;11.420;2023-03-23T10:40:43;9.40;;;8.83;;
8584;SDS011;7180;52.742;11.420;2023-03-23T10:43:08;9.63;;;9.03;;
8584;SDS011;7180;52.742;11.420;2023-03-23T10:45:34;9.97;;;9.37;;
8584;SDS011;7180;52.742;11.420;2023-03-23T10:50:45;9.47;;;8.97;;
8584;SDS011;7180;52.742;11.420;2023-03-23T10:53:19;9.87;;;9.17;;
8584;SDS011;7180;52.742;11.420;2023-03-23T10:55:45;9.30;;;8.70;;
8584;SDS011;7180;52.742;11.420;2023-03-23T10:58:13;9.23;;;8.63;;
8584;SDS011;7180;52.742;11.420;2023-03-23T11:00:47;9.73;;;9.13;;
8584;SDS011;7180;52.742;11.420;2023-03-23T11:05:45;10.03;;;9.43;;
8584;SDS011;7180;52.742;11.420;2023-03-23T11:08:15;10.40;;;9.80;;
8584;SDS011;7180;52.742;11.420;2023-03-23T11:10:42;10.30;;;9.70;;
8584;SDS011;7180;52.742;11.420;2023-03-23T11:13:13;10.20;;;9.60;;
8584;SDS011;7180;52.742;11.420;2023-03-23T11:15:39;9.43;;;8.93;;
8584;SDS011;7180;52.742;11.420;2023-03-23T11:18:06;10.20;;;9.60;;
8584;SDS011;7180;52.742;11.420;2023-03-23T11:20:35;10.33;;;9.63;;
8584;SDS011;7180;52.742;11.420;2023-03-23T11:23:07;10.30;;;9.70;;
8584;SDS011;7180;52.742;11.420;2023-03-23T11:25:32;8.80;;;8.30;;
8584;SDS011;7180;52.742;11.420;2023-03-23T11:27:58;9.50;;;8.90;;
8584;SDS011;7180;52.742;11.420;2023-03-23T11:30:26;9.67;;;9.07;;
8584;SDS011;7180;52.742;11.420;2023-03-23T11:32:52;8.93;;;8.43;;
8584;SDS011;7180;52.742;11.420;2023-03-23T11:35:19;8.90;;;8.20;;
8584;SDS011;7180;52.742;11.420;2023-03-23T11:37:49;9.20;;;8.60;;
8584;SDS011;7180;52.742;11.420;2023-03-23T11:40:23;9.30;;;8.70;;
8584;SDS011;7180;52.742;11.420;2023-03-23T11:50:35;9.03;;;8.40;;
8584;SDS011;7180;52.742;11.420;2023-03-23T11:55:49;9.03;;;8.43;;
8584;SDS011;7180;52.742;11.420;2023-03-23T11:58:20;9.20;;;8.60;;
8584;SDS011;7180;52.742;11.420;2023-03-23T12:00:48;9.53;;;8.93;;
8584;SDS011;7180;52.742;11.420;2023-03-23T12:06:11;10.53;;;9.60;;
8584;SDS011;7180;52.742;11.420;2023-03-23T12:11:16;10.60;;;9.80;;
8584;SDS011;7180;52.742;11.420;2023-03-23T12:13:52;9.97;;;9.37;;
8584;SDS011;7180;52.742;11.420;2023-03-23T12:19:02;9.17;;;8.67;;
8584;SDS011;7180;52.742;11.420;2023-03-23T12:24:06;9.73;;;9.03;;
8584;SDS011;7180;52.742;11.420;2023-03-23T12:26:35;8.40;;;7.80;;
8584;SDS011;7180;52.742;11.420;2023-03-23T12:29:12;9.00;;;8.20;;
8584;SDS011;7180;52.742;11.420;2023-03-23T12:36:53;8.53;;;7.97;;
8584;SDS011;7180;52.742;11.420;2023-03-23T12:42:16;7.50;;;7.10;;
8584;SDS011;7180;52.742;11.420;2023-03-23T12:44:46;8.00;;;7.50;;
8584;SDS011;7180;52.742;11.420;2023-03-23T12:49:46;8.90;;;8.30;;
8584;SDS011;7180;52.742;11.420;2023-03-23T12:55:02;8.80;;;8.33;;
8584;SDS011;7180;52.742;11.420;2023-03-23T12:57:34;9.13;;;8.60;;
8584;SDS011;7180;52.742;11.420;2023-03-23T13:02:37;7.27;;;6.73;;
8584;SDS011;7180;52.742;11.420;2023-03-23T13:05:24;7.90;;;7.50;;
8584;SDS011;7180;52.742;11.420;2023-03-23T13:10:39;8.13;;;7.73;;
8584;SDS011;7180;52.742;11.420;2023-03-23T13:13:08;9.73;;;9.23;;
8584;SDS011;7180;52.742;11.420;2023-03-23T13:18:18;8.53;;;8.03;;
8584;SDS011;7180;52.742;11.420;2023-03-23T13:20:59;8.17;;;7.67;;
8584;SDS011;7180;52.742;11.420;2023-03-23T13:23:29;8.20;;;7.80;;
8584;SDS011;7180;52.742;11.420;2023-03-23T13:25:58;8.00;;;7.60;;
8584;SDS011;7180;52.742;11.420;2023-03-23T13:28:31;8.60;;;8.10;;
8584;SDS011;7180;52.742;11.420;2023-03-23T13:30:59;7.97;;;7.47;;
8584;SDS011;7180;52.742;11.420;2023-03-23T13:33:25;7.67;;;7.27;;
8584;SDS011;7180;52.742;11.420;2023-03-23T13:35:53;8.87;;;8.37;;
8584;SDS011;7180;52.742;11.420;2023-03-23T13:38:23;8.10;;;7.70;;
8584;SDS011;7180;52.742;11.420;2023-03-23T13:40:49;8.50;;;7.90;;
8584;SDS011;7180;52.742;11.420;2023-03-23T13:43:24;7.90;;;7.50;;
8584;SDS011;7180;52.742;11.420;2023-03-23T13:45:51;8.43;;;7.93;;
8584;SDS011;7180;52.742;11.420;2023-03-23T13:48:21;8.53;;;7.97;;
8584;SDS011;7180;52.742;11.420;2023-03-23T13:50:54;7.80;;;7.40;;
8584;SDS011;7180;52.742;11.420;2023-03-23T13:53:22;8.00;;;7.60;;
8584;SDS011;7180;52.742;11.420;2023-03-23T13:55:49;8.80;;;8.30;;
8584;SDS011;7180;52.742;11.420;2023-03-23T13:58:21;8.10;;;7.60;;
8584;SDS011;7180;52.742;11.420;2023-03-23T14:00:48;9.37;;;8.73;;
8584;SDS011;7180;52.742;11.420;2023-03-23T14:03:33;9.80;;;9.20;;
8584;SDS011;7180;52.742;11.420;2023-03-23T14:06:01;9.40;;;8.90;;
8584;SDS011;7180;52.742;11.420;2023-03-23T14:10:53;10.23;;;9.52;;
8584;SDS011;7180;52.742;11.420;2023-03-23T14:13:25;9.33;;;8.73;;
8584;SDS011;7180;52.742;11.420;2023-03-23T14:15:54;9.93;;;9.43;;
8584;SDS011;7180;52.742;11.420;2023-03-23T14:18:21;10.30;;;9.60;;
8584;SDS011;7180;52.742;11.420;2023-03-23T14:20:46;10.47;;;9.87;;
8584;SDS011;7180;52.742;11.420;2023-03-23T14:23:14;8.87;;;8.37;;
8584;SDS011;7180;52.742;11.420;2023-03-23T14:25:40;9.80;;;9.17;;
8584;SDS011;7180;52.742;11.420;2023-03-23T14:28:15;10.43;;;9.73;;
8584;SDS011;7180;52.742;11.420;2023-03-23T14:30:41;11.20;;;10.40;;
8584;SDS011;7180;52.742;11.420;2023-03-23T14:33:06;10.33;;;9.73;;
8584;SDS011;7180;52.742;11.420;2023-03-23T14:35:34;8.97;;;8.37;;
8584;SDS011;7180;52.742;11.420;2023-03-23T14:38:00;8.57;;;8.13;;
8584;SDS011;7180;52.742;11.420;2023-03-23T14:40:26;9.80;;;9.20;;
8584;SDS011;7180;52.742;11.420;2023-03-23T14:42:52;8.93;;;8.43;;
8584;SDS011;7180;52.742;11.420;2023-03-23T14:45:19;9.90;;;9.40;;
8584;SDS011;7180;52.742;11.420;2023-03-23T14:47:46;9.70;;;9.10;;
8584;SDS011;7180;52.742;11.420;2023-03-23T14:50:22;8.70;;;8.20;;
8584;SDS011;7180;52.742;11.420;2023-03-23T14:52:48;10.70;;;9.80;;
8584;SDS011;7180;52.742;11.420;2023-03-23T14:55:14;8.57;;;8.17;;
8584;SDS011;7180;52.742;11.420;2023-03-23T14:57:41;9.10;;;8.50;;
8584;SDS011;7180;52.742;11.420;2023-03-23T15:00:17;9.40;;;8.80;;
8584;SDS011;7180;52.742;11.420;2023-03-23T15:02:44;9.03;;;8.53;;
8584;SDS011;7180;52.742;11.420;2023-03-23T15:05:14;8.90;;;8.40;;
8584;SDS011;7180;52.742;11.420;2023-03-23T15:07:40;8.90;;;8.50;;
8584;SDS011;7180;52.742;11.420;2023-03-23T15:10:07;9.57;;;9.07;;
8584;SDS011;7180;52.742;11.420;2023-03-23T15:12:33;9.73;;;9.20;;
8584;SDS011;7180;52.742;11.420;2023-03-23T15:15:03;9.90;;;9.40;;
8584;SDS011;7180;52.742;11.420;2023-03-23T15:17:30;8.70;;;8.20;;
8584;SDS011;7180;52.742;11.420;2023-03-23T15:19:56;8.70;;;8.30;;
8584;SDS011;7180;52.742;11.420;2023-03-23T15:22:27;8.30;;;7.90;;
8584;SDS011;7180;52.742;11.420;2023-03-23T15:25:00;8.50;;;8.10;;
8584;SDS011;7180;52.742;11.420;2023-03-23T15:27:30;8.50;;;7.90;;
8584;SDS011;7180;52.742;11.420;2023-03-23T15:29:57;8.20;;;7.80;;
8584;SDS011;7180;52.742;11.420;2023-03-23T15:32:30;8.70;;;8.20;;
8584;SDS011;7180;52.742;11.420;2023-03-23T15:34:55;9.30;;;8.80;;
8584;SDS011;7180;52.742;11.420;2023-03-23T15:37:24;8.80;;;8.40;;
8584;SDS011;7180;52.742;11.420;2023-03-23T15:39:50;8.87;;;8.37;;
8584;SDS011;7180;52.742;11.420;2023-03-23T15:42:26;9.40;;;8.90;;
8584;SDS011;7180;52.742;11.420;2023-03-23T15:47:32;8.60;;;8.20;;
8584;SDS011;7180;52.742;11.420;2023-03-23T15:50:01;8.90;;;8.30;;
8584;SDS011;7180;52.742;11.420;2023-03-23T15:52:26;8.80;;;8.40;;
8584;SDS011;7180;52.742;11.420;2023-03-23T15:54:51;8.57;;;8.17;;
8584;SDS011;7180;52.742;11.420;2023-03-23T15:57:16;8.80;;;8.40;;
8584;SDS011;7180;52.742;11.420;2023-03-23T15:59:42;8.40;;;8.00;;
8584;SDS011;7180;52.742;11.420;2023-03-23T16:02:10;8.80;;;8.20;;
8584;SDS011;7180;52.742;11.420;2023-03-23T16:04:38;8.83;;;8.43;;